sensor_id;sensor_type;location;lat;lon;timestamp;temperature;humidity
69677;DHT22;56914;51.058;9.326;2022-08-19T03:21:14;23.60;62.40
69677;DHT22;56914;51.058;9.326;2022-08-19T03:34:14;23.70;62.30
69677;DHT22;56914;51.058;9.326;2022-08-19T04:52:53;23.50;62.40
69677;DHT22;56914;51.058;9.326;2022-08-19T04:55:21;23.50;62.40
69677;DHT22;56914;51.058;9.326;2022-08-19T04:57:52;23.50;62.40
69677;DHT22;56914;51.058;9.326;2022-08-19T05:00:20;23.50;62.20
69677;DHT22;56914;51.058;9.326;2022-08-19T05:02:47;23.50;62.10
69677;DHT22;56914;51.058;9.326;2022-08-19T05:05:16;23.50;62.20
69677;DHT22;56914;51.058;9.326;2022-08-19T05:07:44;23.50;62.10
69677;DHT22;56914;51.058;9.326;2022-08-19T05:10:13;23.50;62.10
69677;DHT22;56914;51.058;9.326;2022-08-19T05:12:40;23.50;61.90
69677;DHT22;56914;51.058;9.326;2022-08-19T05:15:09;23.50;61.80
69677;DHT22;56914;51.058;9.326;2022-08-19T05:17:37;23.50;61.70
69677;DHT22;56914;51.058;9.326;2022-08-19T05:20:25;23.50;61.70
69677;DHT22;56914;51.058;9.326;2022-08-19T05:23:10;23.50;61.70
69677;DHT22;56914;51.058;9.326;2022-08-19T05:25:49;23.60;61.50
69677;DHT22;56914;51.058;9.326;2022-08-19T05:28:18;23.60;61.40
69677;DHT22;56914;51.058;9.326;2022-08-19T05:30:46;23.60;61.30
69677;DHT22;56914;51.058;9.326;2022-08-19T05:33:14;23.70;61.10
69677;DHT22;56914;51.058;9.326;2022-08-19T05:35:42;23.80;61.50
69677;DHT22;56914;51.058;9.326;2022-08-19T05:38:10;23.80;60.80
69677;DHT22;56914;51.058;9.326;2022-08-19T05:40:39;23.80;60.80
69677;DHT22;56914;51.058;9.326;2022-08-19T05:43:08;23.80;60.70
69677;DHT22;56914;51.058;9.326;2022-08-19T05:45:39;23.80;60.60
69677;DHT22;56914;51.058;9.326;2022-08-19T05:48:08;23.90;60.50
69677;DHT22;56914;51.058;9.326;2022-08-19T05:50:37;23.90;60.30
69677;DHT22;56914;51.058;9.326;2022-08-19T05:53:05;23.90;60.30
69677;DHT22;56914;51.058;9.326;2022-08-19T05:55:35;24.00;60.20
69677;DHT22;56914;51.058;9.326;2022-08-19T05:58:04;24.10;60.10
69677;DHT22;56914;51.058;9.326;2022-08-19T06:00:35;24.10;60.00
69677;DHT22;56914;51.058;9.326;2022-08-19T06:03:04;24.20;59.90
69677;DHT22;56914;51.058;9.326;2022-08-19T06:05:39;24.30;59.60
69677;DHT22;56914;51.058;9.326;2022-08-19T06:08:15;24.40;59.30
69677;DHT22;56914;51.058;9.326;2022-08-19T06:10:44;24.50;59.20
69677;DHT22;56914;51.058;9.326;2022-08-19T06:13:12;24.50;59.10
69677;DHT22;56914;51.058;9.326;2022-08-19T06:15:41;24.50;58.90
69677;DHT22;56914;51.058;9.326;2022-08-19T06:18:10;24.50;59.20
69677;DHT22;56914;51.058;9.326;2022-08-19T06:20:38;24.60;59.00
69677;DHT22;56914;51.058;9.326;2022-08-19T06:23:21;24.70;58.70
69677;DHT22;56914;51.058;9.326;2022-08-19T06:25:49;24.80;58.30
69677;DHT22;56914;51.058;9.326;2022-08-19T06:28:17;24.90;58.20
69677;DHT22;56914;51.058;9.326;2022-08-19T06:30:47;24.80;58.00
69677;DHT22;56914;51.058;9.326;2022-08-19T06:33:15;24.80;58.10
69677;DHT22;56914;51.058;9.326;2022-08-19T06:35:44;24.80;58.00
69677;DHT22;56914;51.058;9.326;2022-08-19T06:38:12;25.00;57.90
69677;DHT22;56914;51.058;9.326;2022-08-19T06:40:40;25.10;57.50
69677;DHT22;56914;51.058;9.326;2022-08-19T06:43:12;25.20;57.40
69677;DHT22;56914;51.058;9.326;2022-08-19T06:45:44;25.20;57.20
69677;DHT22;56914;51.058;9.326;2022-08-19T06:48:14;25.20;57.00
69677;DHT22;56914;51.058;9.326;2022-08-19T06:50:43;25.40;56.90
69677;DHT22;56914;51.058;9.326;2022-08-19T06:53:11;25.60;56.50
69677;DHT22;56914;51.058;9.326;2022-08-19T06:55:40;25.60;55.70
69677;DHT22;56914;51.058;9.326;2022-08-19T06:58:07;25.50;55.90
69677;DHT22;56914;51.058;9.326;2022-08-19T07:00:35;25.50;56.00
69677;DHT22;56914;51.058;9.326;2022-08-19T07:03:04;25.60;55.80
69677;DHT22;56914;51.058;9.326;2022-08-19T07:05:39;25.60;55.60
69677;DHT22;56914;51.058;9.326;2022-08-19T07:08:11;25.60;55.40
69677;DHT22;56914;51.058;9.326;2022-08-19T07:10:42;25.60;55.50
69677;DHT22;56914;51.058;9.326;2022-08-19T07:13:09;25.60;55.50
69677;DHT22;56914;51.058;9.326;2022-08-19T07:15:38;25.60;55.40
69677;DHT22;56914;51.058;9.326;2022-08-19T07:18:05;25.50;55.40
69677;DHT22;56914;51.058;9.326;2022-08-19T07:20:39;25.50;55.30
69677;DHT22;56914;51.058;9.326;2022-08-19T07:23:08;25.50;55.20
69677;DHT22;56914;51.058;9.326;2022-08-19T07:25:42;25.50;55.20
69677;DHT22;56914;51.058;9.326;2022-08-19T07:28:18;25.60;55.20
69677;DHT22;56914;51.058;9.326;2022-08-19T07:30:51;25.60;55.00
69677;DHT22;56914;51.058;9.326;2022-08-19T07:33:19;25.50;55.20
69677;DHT22;56914;51.058;9.326;2022-08-19T07:35:48;25.50;55.10
69677;DHT22;56914;51.058;9.326;2022-08-19T07:38:16;25.50;54.70
69677;DHT22;56914;51.058;9.326;2022-08-19T07:40:44;25.50;55.00
69677;DHT22;56914;51.058;9.326;2022-08-19T07:43:13;25.60;55.10
69677;DHT22;56914;51.058;9.326;2022-08-19T07:45:43;25.70;54.90
69677;DHT22;56914;51.058;9.326;2022-08-19T07:48:11;25.90;54.60
69677;DHT22;56914;51.058;9.326;2022-08-19T07:50:39;26.10;54.60
69677;DHT22;56914;51.058;9.326;2022-08-19T07:53:08;26.20;54.10
69677;DHT22;56914;51.058;9.326;2022-08-19T07:55:38;26.30;53.70
69677;DHT22;56914;51.058;9.326;2022-08-19T07:58:10;26.20;53.80
69677;DHT22;56914;51.058;9.326;2022-08-19T08:00:38;26.30;53.60
69677;DHT22;56914;51.058;9.326;2022-08-19T08:03:06;26.30;53.50
69677;DHT22;56914;51.058;9.326;2022-08-19T08:05:35;26.40;53.30
69677;DHT22;56914;51.058;9.326;2022-08-19T08:08:21;26.60;52.60
69677;DHT22;56914;51.058;9.326;2022-08-19T08:11:15;26.60;52.40
69677;DHT22;56914;51.058;9.326;2022-08-19T08:13:46;26.60;52.40
69677;DHT22;56914;51.058;9.326;2022-08-19T08:16:30;26.60;52.60
69677;DHT22;56914;51.058;9.326;2022-08-19T08:19:00;26.80;52.30
69677;DHT22;56914;51.058;9.326;2022-08-19T08:21:32;27.00;51.80
69677;DHT22;56914;51.058;9.326;2022-08-19T08:24:02;27.00;51.50
69677;DHT22;56914;51.058;9.326;2022-08-19T08:26:30;27.00;51.80
69677;DHT22;56914;51.058;9.326;2022-08-19T08:29:00;27.20;51.60
69677;DHT22;56914;51.058;9.326;2022-08-19T08:31:38;27.30;51.60
69677;DHT22;56914;51.058;9.326;2022-08-19T08:34:06;27.50;51.10
69677;DHT22;56914;51.058;9.326;2022-08-19T08:36:36;27.60;50.80
69677;DHT22;56914;51.058;9.326;2022-08-19T08:39:09;27.60;50.50
69677;DHT22;56914;51.058;9.326;2022-08-19T08:41:39;27.50;50.80
69677;DHT22;56914;51.058;9.326;2022-08-19T08:44:11;27.50;50.70
69677;DHT22;56914;51.058;9.326;2022-08-19T08:46:46;27.60;50.60
69677;DHT22;56914;51.058;9.326;2022-08-19T08:49:22;27.60;50.10
69677;DHT22;56914;51.058;9.326;2022-08-19T08:51:52;27.70;50.10
69677;DHT22;56914;51.058;9.326;2022-08-19T08:54:28;27.80;49.50
69677;DHT22;56914;51.058;9.326;2022-08-19T08:57:00;27.80;49.70
69677;DHT22;56914;51.058;9.326;2022-08-19T08:59:31;27.80;49.30
69677;DHT22;56914;51.058;9.326;2022-08-19T09:02:01;27.70;49.60
69677;DHT22;56914;51.058;9.326;2022-08-19T09:04:29;27.60;49.40
69677;DHT22;56914;51.058;9.326;2022-08-19T09:07:01;27.60;49.50
69677;DHT22;56914;51.058;9.326;2022-08-19T09:09:56;27.50;49.20
69677;DHT22;56914;51.058;9.326;2022-08-19T09:12:33;27.50;49.60
69677;DHT22;56914;51.058;9.326;2022-08-19T09:15:09;27.50;49.30
69677;DHT22;56914;51.058;9.326;2022-08-19T09:17:38;27.40;49.30
69677;DHT22;56914;51.058;9.326;2022-08-19T09:20:12;27.50;49.30
69677;DHT22;56914;51.058;9.326;2022-08-19T09:22:43;27.70;49.20
69677;DHT22;56914;51.058;9.326;2022-08-19T09:25:16;28.10;48.50
69677;DHT22;56914;51.058;9.326;2022-08-19T09:27:55;28.10;48.50
69677;DHT22;56914;51.058;9.326;2022-08-19T09:30:33;28.20;47.80
69677;DHT22;56914;51.058;9.326;2022-08-19T09:33:01;28.20;47.60
69677;DHT22;56914;51.058;9.326;2022-08-19T09:35:29;28.10;47.60
69677;DHT22;56914;51.058;9.326;2022-08-19T09:38:15;28.20;47.80
69677;DHT22;56914;51.058;9.326;2022-08-19T09:40:45;28.10;48.10
69677;DHT22;56914;51.058;9.326;2022-08-19T09:43:13;28.20;48.00
69677;DHT22;56914;51.058;9.326;2022-08-19T09:45:58;28.30;47.90
69677;DHT22;56914;51.058;9.326;2022-08-19T09:48:26;28.40;47.90
69677;DHT22;56914;51.058;9.326;2022-08-19T09:50:54;28.40;47.20
69677;DHT22;56914;51.058;9.326;2022-08-19T09:53:22;28.20;47.40
69677;DHT22;56914;51.058;9.326;2022-08-19T09:55:52;28.00;47.60
69677;DHT22;56914;51.058;9.326;2022-08-19T09:58:22;28.10;47.90
69677;DHT22;56914;51.058;9.326;2022-08-19T10:00:54;28.40;47.70
69677;DHT22;56914;51.058;9.326;2022-08-19T10:03:22;28.50;47.20
69677;DHT22;56914;51.058;9.326;2022-08-19T10:05:51;28.70;47.30
69677;DHT22;56914;51.058;9.326;2022-08-19T10:08:21;28.80;46.80
69677;DHT22;56914;51.058;9.326;2022-08-19T10:10:53;28.80;46.50
69677;DHT22;56914;51.058;9.326;2022-08-19T10:13:26;28.90;46.50
69677;DHT22;56914;51.058;9.326;2022-08-19T10:15:56;28.90;46.20
69677;DHT22;56914;51.058;9.326;2022-08-19T10:18:24;29.00;46.20
69677;DHT22;56914;51.058;9.326;2022-08-19T10:21:01;29.00;46.10
69677;DHT22;56914;51.058;9.326;2022-08-19T10:23:30;28.90;46.30
69677;DHT22;56914;51.058;9.326;2022-08-19T10:26:02;28.80;46.10
69677;DHT22;56914;51.058;9.326;2022-08-19T10:28:38;28.70;46.30
69677;DHT22;56914;51.058;9.326;2022-08-19T10:35:04;28.60;46.10
69677;DHT22;56914;51.058;9.326;2022-08-19T10:37:46;28.70;46.20
69677;DHT22;56914;51.058;9.326;2022-08-19T10:40:27;28.80;45.40
69677;DHT22;56914;51.058;9.326;2022-08-19T10:43:09;28.90;45.30
69677;DHT22;56914;51.058;9.326;2022-08-19T10:45:37;29.20;45.20
69677;DHT22;56914;51.058;9.326;2022-08-19T10:48:22;29.40;45.20
69677;DHT22;56914;51.058;9.326;2022-08-19T10:50:50;29.60;44.70
69677;DHT22;56914;51.058;9.326;2022-08-19T10:53:48;29.70;44.00
69677;DHT22;56914;51.058;9.326;2022-08-19T10:56:19;29.70;44.10
69677;DHT22;56914;51.058;9.326;2022-08-19T11:02:21;30.20;43.80
69677;DHT22;56914;51.058;9.326;2022-08-19T11:05:07;30.20;43.40
69677;DHT22;56914;51.058;9.326;2022-08-19T11:07:46;30.30;43.70
69677;DHT22;56914;51.058;9.326;2022-08-19T11:10:25;30.30;43.80
69677;DHT22;56914;51.058;9.326;2022-08-19T11:12:57;30.40;43.40
69677;DHT22;56914;51.058;9.326;2022-08-19T11:15:29;30.40;42.80
69677;DHT22;56914;51.058;9.326;2022-08-19T11:18:27;30.50;42.90
69677;DHT22;56914;51.058;9.326;2022-08-19T11:21:18;30.80;42.30
69677;DHT22;56914;51.058;9.326;2022-08-19T11:23:58;30.90;41.60
69677;DHT22;56914;51.058;9.326;2022-08-19T11:26:48;30.70;41.90
69677;DHT22;56914;51.058;9.326;2022-08-19T11:29:28;30.80;41.50
69677;DHT22;56914;51.058;9.326;2022-08-19T11:32:13;30.70;41.40
69677;DHT22;56914;51.058;9.326;2022-08-19T11:34:57;30.70;41.30
69677;DHT22;56914;51.058;9.326;2022-08-19T11:37:40;30.70;41.40
69677;DHT22;56914;51.058;9.326;2022-08-19T11:40:22;30.60;41.60
69677;DHT22;56914;51.058;9.326;2022-08-19T11:43:14;30.70;41.40
69677;DHT22;56914;51.058;9.326;2022-08-19T11:46:03;30.60;41.30
69677;DHT22;56914;51.058;9.326;2022-08-19T11:48:40;30.40;41.50
69677;DHT22;56914;51.058;9.326;2022-08-19T11:51:14;30.70;41.40
69677;DHT22;56914;51.058;9.326;2022-08-19T11:53:49;30.90;41.00
69677;DHT22;56914;51.058;9.326;2022-08-19T11:56:20;31.00;41.00
69677;DHT22;56914;51.058;9.326;2022-08-19T11:59:09;31.30;40.90
69677;DHT22;56914;51.058;9.326;2022-08-19T12:01:49;31.90;40.50
69677;DHT22;56914;51.058;9.326;2022-08-19T12:04:30;32.40;39.40
69677;DHT22;56914;51.058;9.326;2022-08-19T12:07:22;32.70;38.90
69677;DHT22;56914;51.058;9.326;2022-08-19T12:09:56;32.80;38.20
69677;DHT22;56914;51.058;9.326;2022-08-19T12:12:29;32.50;37.50
69677;DHT22;56914;51.058;9.326;2022-08-19T12:14:57;32.00;38.20
69677;DHT22;56914;51.058;9.326;2022-08-19T12:17:25;31.50;38.80
69677;DHT22;56914;51.058;9.326;2022-08-19T12:19:53;31.10;39.00
69677;DHT22;56914;51.058;9.326;2022-08-19T12:22:23;30.80;39.40
69677;DHT22;56914;51.058;9.326;2022-08-19T12:24:51;30.60;39.90
69677;DHT22;56914;51.058;9.326;2022-08-19T12:27:21;30.80;40.30
69677;DHT22;56914;51.058;9.326;2022-08-19T12:30:07;31.30;40.30
69677;DHT22;56914;51.058;9.326;2022-08-19T12:32:38;31.70;39.50
69677;DHT22;56914;51.058;9.326;2022-08-19T12:35:07;31.60;39.10
69677;DHT22;56914;51.058;9.326;2022-08-19T12:37:39;31.30;39.10
69677;DHT22;56914;51.058;9.326;2022-08-19T12:40:22;30.90;39.50
69677;DHT22;56914;51.058;9.326;2022-08-19T12:42:55;30.90;39.70
69677;DHT22;56914;51.058;9.326;2022-08-19T12:45:29;30.80;39.50
69677;DHT22;56914;51.058;9.326;2022-08-19T12:48:06;31.00;39.40
69677;DHT22;56914;51.058;9.326;2022-08-19T12:50:54;31.30;38.90
69677;DHT22;56914;51.058;9.326;2022-08-19T12:53:30;31.90;38.20
69677;DHT22;56914;51.058;9.326;2022-08-19T12:56:08;32.30;38.00
69677;DHT22;56914;51.058;9.326;2022-08-19T12:58:49;32.60;37.40
69677;DHT22;56914;51.058;9.326;2022-08-19T13:01:19;32.20;37.50
69677;DHT22;56914;51.058;9.326;2022-08-19T13:03:52;31.90;37.80
69677;DHT22;56914;51.058;9.326;2022-08-19T13:06:23;31.80;38.00
69677;DHT22;56914;51.058;9.326;2022-08-19T13:08:57;31.60;38.00
69677;DHT22;56914;51.058;9.326;2022-08-19T13:11:28;31.30;38.20
69677;DHT22;56914;51.058;9.326;2022-08-19T13:14:00;31.10;38.20
69677;DHT22;56914;51.058;9.326;2022-08-19T13:16:33;31.10;38.20
69677;DHT22;56914;51.058;9.326;2022-08-19T13:19:05;31.30;38.10
69677;DHT22;56914;51.058;9.326;2022-08-19T13:21:48;31.40;37.90
69677;DHT22;56914;51.058;9.326;2022-08-19T13:24:27;31.40;37.60
69677;DHT22;56914;51.058;9.326;2022-08-19T13:26:59;31.50;37.40
69677;DHT22;56914;51.058;9.326;2022-08-19T13:29:30;31.40;37.10
69677;DHT22;56914;51.058;9.326;2022-08-19T13:32:16;31.30;37.20
69677;DHT22;56914;51.058;9.326;2022-08-19T13:35:10;31.50;37.40
69677;DHT22;56914;51.058;9.326;2022-08-19T13:37:42;31.60;37.50
69677;DHT22;56914;51.058;9.326;2022-08-19T13:40:18;31.60;36.90
69677;DHT22;56914;51.058;9.326;2022-08-19T13:42:52;31.30;37.40
69677;DHT22;56914;51.058;9.326;2022-08-19T13:45:23;31.20;37.80
69677;DHT22;56914;51.058;9.326;2022-08-19T13:47:52;31.20;37.90
69677;DHT22;56914;51.058;9.326;2022-08-19T13:50:26;31.30;37.90
69677;DHT22;56914;51.058;9.326;2022-08-19T13:52:57;31.50;37.70
69677;DHT22;56914;51.058;9.326;2022-08-19T13:55:26;31.50;37.60
69677;DHT22;56914;51.058;9.326;2022-08-19T13:57:58;31.30;37.70
69677;DHT22;56914;51.058;9.326;2022-08-19T14:00:30;31.20;38.40
69677;DHT22;56914;51.058;9.326;2022-08-19T14:02:59;31.30;37.70
69677;DHT22;56914;51.058;9.326;2022-08-19T14:05:35;31.20;37.50
69677;DHT22;56914;51.058;9.326;2022-08-19T14:08:10;31.10;37.10
69677;DHT22;56914;51.058;9.326;2022-08-19T14:10:44;31.50;37.20
69677;DHT22;56914;51.058;9.326;2022-08-19T14:13:13;31.90;37.00
69677;DHT22;56914;51.058;9.326;2022-08-19T14:15:51;32.00;36.50
69677;DHT22;56914;51.058;9.326;2022-08-19T14:18:29;32.00;36.60
69677;DHT22;56914;51.058;9.326;2022-08-19T14:21:01;31.70;36.90
69677;DHT22;56914;51.058;9.326;2022-08-19T14:23:34;31.70;37.10
69677;DHT22;56914;51.058;9.326;2022-08-19T14:26:10;31.90;37.20
69677;DHT22;56914;51.058;9.326;2022-08-19T14:28:42;32.00;36.70
69677;DHT22;56914;51.058;9.326;2022-08-19T14:31:16;31.90;36.80
69677;DHT22;56914;51.058;9.326;2022-08-19T14:33:56;32.00;36.40
69677;DHT22;56914;51.058;9.326;2022-08-19T14:36:25;32.20;36.40
69677;DHT22;56914;51.058;9.326;2022-08-19T14:39:04;32.40;35.80
69677;DHT22;56914;51.058;9.326;2022-08-19T14:42:05;32.50;35.00
69677;DHT22;56914;51.058;9.326;2022-08-19T14:44:58;32.30;35.10
69677;DHT22;56914;51.058;9.326;2022-08-19T14:47:29;32.20;35.50
69677;DHT22;56914;51.058;9.326;2022-08-19T14:50:01;32.10;35.50
69677;DHT22;56914;51.058;9.326;2022-08-19T14:52:31;32.10;35.80
69677;DHT22;56914;51.058;9.326;2022-08-19T14:55:04;32.00;35.70
69677;DHT22;56914;51.058;9.326;2022-08-19T14:57:45;31.60;36.10
69677;DHT22;56914;51.058;9.326;2022-08-19T15:00:17;31.50;36.40
69677;DHT22;56914;51.058;9.326;2022-08-19T15:02:57;31.50;36.60
69677;DHT22;56914;51.058;9.326;2022-08-19T15:05:27;31.60;36.60
69677;DHT22;56914;51.058;9.326;2022-08-19T15:07:55;31.80;36.60
69677;DHT22;56914;51.058;9.326;2022-08-19T15:10:26;31.90;36.40
69677;DHT22;56914;51.058;9.326;2022-08-19T15:12:57;31.90;36.50
69677;DHT22;56914;51.058;9.326;2022-08-19T15:15:29;32.00;36.40
69677;DHT22;56914;51.058;9.326;2022-08-19T15:17:57;31.70;35.90
69677;DHT22;56914;51.058;9.326;2022-08-19T15:20:28;31.50;35.80
69677;DHT22;56914;51.058;9.326;2022-08-19T15:22:57;31.20;35.90
69677;DHT22;56914;51.058;9.326;2022-08-19T15:25:25;31.20;36.10
69677;DHT22;56914;51.058;9.326;2022-08-19T15:27:54;31.30;36.20
69677;DHT22;56914;51.058;9.326;2022-08-19T15:30:24;31.30;36.00
69677;DHT22;56914;51.058;9.326;2022-08-19T15:32:53;31.20;35.90
69677;DHT22;56914;51.058;9.326;2022-08-19T15:35:22;31.30;35.90
69677;DHT22;56914;51.058;9.326;2022-08-19T15:37:50;31.30;36.00
69677;DHT22;56914;51.058;9.326;2022-08-19T15:40:21;31.40;35.40
69677;DHT22;56914;51.058;9.326;2022-08-19T15:42:51;31.30;35.60
69677;DHT22;56914;51.058;9.326;2022-08-19T15:45:20;31.20;35.80
69677;DHT22;56914;51.058;9.326;2022-08-19T15:47:57;31.10;36.00
69677;DHT22;56914;51.058;9.326;2022-08-19T15:50:29;30.90;36.20
69677;DHT22;56914;51.058;9.326;2022-08-19T15:52:59;30.90;36.40
69677;DHT22;56914;51.058;9.326;2022-08-19T15:55:29;30.90;36.50
69677;DHT22;56914;51.058;9.326;2022-08-19T15:58:04;30.90;36.50
69677;DHT22;56914;51.058;9.326;2022-08-19T16:00:58;30.90;36.50
69677;DHT22;56914;51.058;9.326;2022-08-19T16:03:56;31.00;36.30
69677;DHT22;56914;51.058;9.326;2022-08-19T16:06:45;31.00;36.30
69677;DHT22;56914;51.058;9.326;2022-08-19T16:09:19;30.90;36.40
69677;DHT22;56914;51.058;9.326;2022-08-19T16:11:54;30.80;36.40
69677;DHT22;56914;51.058;9.326;2022-08-19T16:14:28;30.70;36.40
69677;DHT22;56914;51.058;9.326;2022-08-19T16:16:57;30.50;36.60
69677;DHT22;56914;51.058;9.326;2022-08-19T16:19:28;30.50;36.40
69677;DHT22;56914;51.058;9.326;2022-08-19T16:22:15;30.50;36.10
69677;DHT22;56914;51.058;9.326;2022-08-19T16:24:47;30.30;36.40
69677;DHT22;56914;51.058;9.326;2022-08-19T16:27:26;30.30;36.60
69677;DHT22;56914;51.058;9.326;2022-08-19T16:30:32;30.30;36.50
69677;DHT22;56914;51.058;9.326;2022-08-19T16:33:00;30.20;36.70
69677;DHT22;56914;51.058;9.326;2022-08-19T16:35:29;30.10;36.80
69677;DHT22;56914;51.058;9.326;2022-08-19T16:37:59;30.00;36.70
69677;DHT22;56914;51.058;9.326;2022-08-19T16:40:30;30.00;36.80
69677;DHT22;56914;51.058;9.326;2022-08-19T16:43:04;30.00;36.70
69677;DHT22;56914;51.058;9.326;2022-08-19T16:45:36;30.00;36.80
69677;DHT22;56914;51.058;9.326;2022-08-19T16:48:14;29.90;36.80
69677;DHT22;56914;51.058;9.326;2022-08-19T17:41:02;29.20;38.40
69677;DHT22;56914;51.058;9.326;2022-08-19T17:43:38;29.10;38.50
69677;DHT22;56914;51.058;9.326;2022-08-19T17:46:09;29.10;38.50
69677;DHT22;56914;51.058;9.326;2022-08-19T17:48:44;29.10;38.50
69677;DHT22;56914;51.058;9.326;2022-08-19T17:51:19;29.00;38.50
69677;DHT22;56914;51.058;9.326;2022-08-19T17:53:49;28.90;38.50
69677;DHT22;56914;51.058;9.326;2022-08-19T17:56:18;28.90;38.50
69677;DHT22;56914;51.058;9.326;2022-08-19T17:58:46;28.90;38.60
69677;DHT22;56914;51.058;9.326;2022-08-19T18:01:26;28.90;38.70
69677;DHT22;56914;51.058;9.326;2022-08-19T18:04:14;28.80;38.70
69677;DHT22;56914;51.058;9.326;2022-08-19T18:06:44;28.80;38.90
69677;DHT22;56914;51.058;9.326;2022-08-19T18:09:21;28.80;39.00
69677;DHT22;56914;51.058;9.326;2022-08-19T18:11:52;28.70;39.00
69677;DHT22;56914;51.058;9.326;2022-08-19T18:14:20;28.70;39.20
69677;DHT22;56914;51.058;9.326;2022-08-19T18:16:59;28.70;39.40
69677;DHT22;56914;51.058;9.326;2022-08-19T18:19:28;28.60;39.40
69677;DHT22;56914;51.058;9.326;2022-08-19T18:22:09;28.50;39.50
69677;DHT22;56914;51.058;9.326;2022-08-19T18:24:39;28.50;39.60
69677;DHT22;56914;51.058;9.326;2022-08-19T18:27:09;28.40;39.60
69677;DHT22;56914;51.058;9.326;2022-08-19T18:29:36;28.40;39.70
69677;DHT22;56914;51.058;9.326;2022-08-19T18:32:05;28.30;39.80
69677;DHT22;56914;51.058;9.326;2022-08-19T18:34:38;28.20;40.00
69677;DHT22;56914;51.058;9.326;2022-08-19T18:37:06;28.10;40.20
69677;DHT22;56914;51.058;9.326;2022-08-19T18:39:34;28.00;40.30
69677;DHT22;56914;51.058;9.326;2022-08-19T18:42:21;28.00;40.40
69677;DHT22;56914;51.058;9.326;2022-08-19T18:45:07;27.90;40.50
69677;DHT22;56914;51.058;9.326;2022-08-19T18:47:53;27.80;40.60
69677;DHT22;56914;51.058;9.326;2022-08-19T18:50:54;27.80;40.60
69677;DHT22;56914;51.058;9.326;2022-08-19T18:53:22;27.80;40.80
69677;DHT22;56914;51.058;9.326;2022-08-19T18:55:50;27.70;41.00
69677;DHT22;56914;51.058;9.326;2022-08-19T18:58:22;27.70;41.10
69677;DHT22;56914;51.058;9.326;2022-08-19T19:00:52;27.60;41.10
69677;DHT22;56914;51.058;9.326;2022-08-19T19:03:22;27.60;41.40
69677;DHT22;56914;51.058;9.326;2022-08-19T19:05:50;27.50;41.50
69677;DHT22;56914;51.058;9.326;2022-08-19T19:08:18;27.40;41.60
69677;DHT22;56914;51.058;9.326;2022-08-19T19:10:53;27.30;41.80
69677;DHT22;56914;51.058;9.326;2022-08-19T19:13:22;27.30;42.90
69677;DHT22;56914;51.058;9.326;2022-08-19T19:15:50;27.10;42.30
69677;DHT22;56914;51.058;9.326;2022-08-19T19:18:19;27.00;42.70
69677;DHT22;56914;51.058;9.326;2022-08-19T19:20:47;26.90;43.10
69677;DHT22;56914;51.058;9.326;2022-08-19T19:23:15;26.70;43.40
69677;DHT22;56914;51.058;9.326;2022-08-19T19:25:43;26.70;43.80
69677;DHT22;56914;51.058;9.326;2022-08-19T19:28:17;26.60;44.00
69677;DHT22;56914;51.058;9.326;2022-08-19T19:30:47;26.40;44.20
69677;DHT22;56914;51.058;9.326;2022-08-19T19:33:15;26.30;44.40
69677;DHT22;56914;51.058;9.326;2022-08-19T19:35:43;26.20;44.70
69677;DHT22;56914;51.058;9.326;2022-08-19T19:38:12;26.10;44.80
69677;DHT22;56914;51.058;9.326;2022-08-19T19:40:40;26.10;45.00
69677;DHT22;56914;51.058;9.326;2022-08-19T19:43:08;26.00;45.10
69677;DHT22;56914;51.058;9.326;2022-08-19T19:45:36;25.90;45.30
69677;DHT22;56914;51.058;9.326;2022-08-19T19:48:05;25.80;45.40
69677;DHT22;56914;51.058;9.326;2022-08-19T19:50:33;25.70;45.50
69677;DHT22;56914;51.058;9.326;2022-08-19T19:53:01;25.70;45.80
69677;DHT22;56914;51.058;9.326;2022-08-19T19:55:32;25.60;45.80
69677;DHT22;56914;51.058;9.326;2022-08-19T19:58:00;25.50;46.00
69677;DHT22;56914;51.058;9.326;2022-08-19T20:00:32;25.50;46.30
69677;DHT22;56914;51.058;9.326;2022-08-19T20:03:00;25.40;46.40
69677;DHT22;56914;51.058;9.326;2022-08-19T20:05:29;25.40;46.50
69677;DHT22;56914;51.058;9.326;2022-08-19T20:07:57;25.30;46.60
69677;DHT22;56914;51.058;9.326;2022-08-19T20:10:44;25.20;46.80
69677;DHT22;56914;51.058;9.326;2022-08-19T20:13:12;25.10;47.00
69677;DHT22;56914;51.058;9.326;2022-08-19T20:15:41;25.10;47.20
69677;DHT22;56914;51.058;9.326;2022-08-19T20:18:10;25.00;47.30
69677;DHT22;56914;51.058;9.326;2022-08-19T20:20:41;25.00;47.40
69677;DHT22;56914;51.058;9.326;2022-08-19T20:23:09;24.90;47.50
69677;DHT22;56914;51.058;9.326;2022-08-19T20:25:37;24.80;47.60
69677;DHT22;56914;51.058;9.326;2022-08-19T20:28:05;24.80;47.80
69677;DHT22;56914;51.058;9.326;2022-08-19T20:30:34;24.70;48.00
69677;DHT22;56914;51.058;9.326;2022-08-19T20:33:09;24.60;48.80
69677;DHT22;56914;51.058;9.326;2022-08-19T20:35:37;24.50;48.20
69677;DHT22;56914;51.058;9.326;2022-08-19T20:38:06;24.50;48.30
69677;DHT22;56914;51.058;9.326;2022-08-19T20:40:35;24.50;48.40
69677;DHT22;56914;51.058;9.326;2022-08-19T20:43:06;24.40;48.50
69677;DHT22;56914;51.058;9.326;2022-08-19T20:45:34;24.30;48.60
69677;DHT22;56914;51.058;9.326;2022-08-19T20:48:03;24.30;48.90
69677;DHT22;56914;51.058;9.326;2022-08-19T20:50:32;24.20;49.00
69677;DHT22;56914;51.058;9.326;2022-08-19T20:53:00;24.20;49.10
69677;DHT22;56914;51.058;9.326;2022-08-19T20:55:36;24.20;49.20
69677;DHT22;56914;51.058;9.326;2022-08-19T20:58:04;24.20;49.40
69677;DHT22;56914;51.058;9.326;2022-08-19T21:00:32;24.10;49.50
69677;DHT22;56914;51.058;9.326;2022-08-19T21:03:00;24.10;49.60
69677;DHT22;56914;51.058;9.326;2022-08-19T21:05:28;24.00;49.70
69677;DHT22;56914;51.058;9.326;2022-08-19T21:07:56;24.00;50.00
69677;DHT22;56914;51.058;9.326;2022-08-19T21:10:24;23.90;50.20
69677;DHT22;56914;51.058;9.326;2022-08-19T21:12:54;23.80;50.20
69677;DHT22;56914;51.058;9.326;2022-08-19T21:15:22;23.80;50.20
69677;DHT22;56914;51.058;9.326;2022-08-19T21:17:50;23.80;50.10
69677;DHT22;56914;51.058;9.326;2022-08-19T21:20:18;23.70;50.20
69677;DHT22;56914;51.058;9.326;2022-08-19T21:22:46;23.70;50.40
69677;DHT22;56914;51.058;9.326;2022-08-19T21:25:14;23.50;50.70
69677;DHT22;56914;51.058;9.326;2022-08-19T21:27:42;23.50;50.80
69677;DHT22;56914;51.058;9.326;2022-08-19T21:30:12;23.50;50.90
69677;DHT22;56914;51.058;9.326;2022-08-19T21:32:40;23.40;51.00
69677;DHT22;56914;51.058;9.326;2022-08-19T21:35:08;23.40;51.10
69677;DHT22;56914;51.058;9.326;2022-08-19T21:37:36;23.40;51.20
69677;DHT22;56914;51.058;9.326;2022-08-19T21:40:07;23.40;51.20
69677;DHT22;56914;51.058;9.326;2022-08-19T21:42:35;23.30;51.30
69677;DHT22;56914;51.058;9.326;2022-08-19T21:45:03;23.30;51.30
69677;DHT22;56914;51.058;9.326;2022-08-19T21:47:33;23.30;51.30
69677;DHT22;56914;51.058;9.326;2022-08-19T21:50:01;23.30;51.40